Ocean Beaut — WDD7485 — position and weather

sailwx.info

Track history (hours):
 
Tides and Currents Weather Stations Pressure Air Temp Water Temp Dewpoint Dewpoint Depression Visibility Wind Speed Wind Dir Waves Ship Positions

Ocean Beaut

Owner: John Moreland Fishing Inc., Astoria, OR. More information available from US FCC via Universal Licensing System.

Last reported at 2014-Nov-21 01:32 UTC. Time now 2014-Nov-21 02:32 UTC.
Position N 46°12' W 123°48'.

Length 20 m.

Type: Fishing. MMSI: 367187080.

Date/timePositionNaut miles runAvg speedWind from/ knotsBaromVisibWave heightAir tempDewpointWater temp
2014-Nov-21 01:32N 46°12' W 123°48'0 0.0
2014-Nov-21 00:32N 46°12' W 123°48'0 0.0
2014-Nov-20 23:32N 46°12' W 123°48'0 0.0
2014-Nov-20 22:32N 46°12' W 123°48'0 0.0
2014-Nov-20 21:32N 46°12' W 123°48'0 0.0
2014-Nov-20 20:32N 46°12' W 123°48'0 0.0
2014-Nov-20 19:32N 46°12' W 123°48'0 0.0
2014-Nov-20 17:22N 46°12' W 123°48'0 0.0
2014-Nov-20 16:31N 46°12' W 123°48'0 0.0
2014-Nov-20 15:31N 46°12' W 123°48'0 0.0
2014-Nov-20 14:31N 46°12' W 123°48'0 0.0
2014-Nov-20 13:31N 46°12' W 123°48'0 0.0
2014-Nov-20 12:31N 46°12' W 123°48'0 0.0
2014-Nov-20 11:31N 46°12' W 123°48'0 0.0
2014-Nov-20 10:31N 46°12' W 123°48'0 0.0
2014-Nov-20 09:31N 46°12' W 123°48'0 0.0
2014-Nov-20 08:31N 46°12' W 123°48'0 0.0
2014-Nov-20 07:31N 46°12' W 123°48'0 0.0
2014-Nov-20 06:25N 46°12' W 123°48'0 0.0
2014-Nov-20 05:31N 46°12' W 123°48'0 0.0
2014-Nov-20 04:31N 46°12' W 123°48'3 3.4
2014-Nov-20 03:33N 46°11' W 123°53'7 7.0
2014-Nov-20 02:33N 46°15' W 124°01'4 4.3
2014-Nov-20 01:33N 46°14' W 124°07'6 5.8
2014-Nov-20 00:33N 46°11' W 124°15'6 6.3
2014-Nov-19 23:33N 46°09' W 124°23'7 6.5
2014-Nov-19 22:33N 46°06' W 124°31'7 6.8
2014-Nov-19 21:33N 46°03' W 124°40'1 1.3
2014-Nov-19 20:33N 46°03' W 124°42'5 4.7
2014-Nov-19 19:33N 46°00' W 124°48'1 1.3
2014-Nov-19 18:33N 45°59' W 124°47'2 2.0
2014-Nov-19 17:33N 45°58' W 124°45'2 2.1
2014-Nov-19 16:33N 45°56' W 124°45'2 2.2
2014-Nov-19 15:33N 45°54' W 124°46'2 2.1
2014-Nov-19 14:33N 45°52' W 124°45'3 2.5
2014-Nov-19 13:33N 45°49' W 124°45'1 1.3
2014-Nov-19 12:33N 45°48' W 124°44'2 2.1
2014-Nov-19 11:33N 45°46' W 124°44'2 2.1
2014-Nov-19 10:33N 45°45' W 124°46'2 2.0
2014-Nov-19 09:33N 45°43' W 124°45'4 3.6
2014-Nov-19 08:33N 45°40' W 124°42'5 5.2
2014-Nov-19 07:33N 45°35' W 124°38'1 1.3
2014-Nov-19 06:33N 45°34' W 124°37'2 2.1
2014-Nov-19 05:33N 45°32' W 124°36'2 2.1
2014-Nov-19 04:33N 45°30' W 124°35'2 2.1
2014-Nov-19 03:33N 45°28' W 124°34'2 2.1
2014-Nov-19 02:33N 45°26' W 124°33'2 2.1
2014-Nov-19 01:33N 45°25' W 124°30'1 0.8
2014-Nov-19 00:33N 45°26' W 124°31'4 1.6
2014-Nov-18 22:13N 45°30' W 124°31'1 2.0
2014-Nov-18 21:33N 45°31' W 124°32'2 2.1
2014-Nov-18 20:32N 45°32' W 124°34'2 2.0
2014-Nov-18 19:29N 45°34' W 124°36'2 2.2
2014-Nov-18 18:23N 45°36' W 124°39'2 2.4
2014-Nov-18 17:31N 45°36' W 124°41'4 2.0
2014-Nov-18 15:16N 45°31' W 124°40'2 2.2
2014-Nov-18 14:30N 45°30' W 124°38'2 2.1
2014-Nov-18 13:33N 45°29' W 124°36'1 0.3
2014-Nov-18 10:33N 45°29' W 124°37'1 1.3
2014-Nov-18 09:33N 45°30' W 124°38'2 2.2
2014-Nov-18 08:30N 45°32' W 124°40'7 2.3
2014-Nov-18 05:19N 45°39' W 124°41'11 6.5
2014-Nov-18 03:33N 45°50' W 124°39'9 8.1
2014-Nov-18 02:27N 45°59' W 124°37'8 8.3
2014-Nov-18 01:31N 46°07' W 124°34'8 8.2
2014-Nov-18 00:33N 46°14' W 124°30'2 1.5
2014-Nov-17 23:33N 46°15' W 124°28'2 2.2
2014-Nov-17 22:33N 46°16' W 124°25'2 2.0
2014-Nov-17 21:31N 46°15' W 124°28'2 2.2
2014-Nov-17 20:33N 46°14' W 124°31'3 2.5
2014-Nov-17 19:33N 46°16' W 124°28'5 4.9
2014-Nov-17 18:33N 46°16' W 124°21'9 8.8
2014-Nov-17 17:33N 46°14' W 124°08'7 7.3
2014-Nov-17 16:33N 46°13' W 123°58'5 4.6
2014-Nov-17 15:31N 46°11' W 123°51'0 0.0
2014-Nov-17 14:31N 46°11' W 123°51'2 2.3
2014-Nov-17 13:30N 46°12' W 123°48'0 0.0
2014-Nov-17 12:33N 46°12' W 123°48'0 0.0
2014-Nov-17 11:33N 46°12' W 123°48'0 0.0
2014-Nov-17 10:33N 46°12' W 123°48'0 0.0
2014-Nov-17 09:33N 46°12' W 123°48'0 0.0
2014-Nov-17 08:33N 46°12' W 123°48'0 0.0
2014-Nov-17 07:33N 46°12' W 123°48'0 0.0
2014-Nov-17 06:33N 46°12' W 123°48'0 0.0
2014-Nov-17 05:33N 46°12' W 123°48'0 0.0
2014-Nov-17 04:33N 46°12' W 123°48'0 0.0
2014-Nov-17 03:33N 46°12' W 123°48'0 0.0
2014-Nov-17 02:30N 46°12' W 123°48'0 0.0
2014-Nov-17 01:33N 46°12' W 123°48'0 0.0
2014-Nov-17 00:33N 46°12' W 123°48'0 0.0
2014-Nov-16 23:33N 46°12' W 123°48'0 0.0
2014-Nov-16 22:33N 46°12' W 123°48'0 0.0
2014-Nov-16 21:33N 46°12' W 123°48'0 0.0
2014-Nov-16 20:33N 46°12' W 123°48'0 0.0
2014-Nov-16 19:33N 46°12' W 123°48'0 0.0
2014-Nov-16 18:33N 46°12' W 123°48'0 0.0
2014-Nov-16 17:33N 46°12' W 123°48'0 0.0
2014-Nov-16 16:33N 46°12' W 123°48'0 0.0
2014-Nov-16 15:33N 46°12' W 123°48'0 0.0
2014-Nov-16 14:33N 46°12' W 123°48'0 0.0
2014-Nov-16 13:33N 46°12' W 123°48'0 0.0
2014-Nov-16 12:33N 46°12' W 123°48'0 0.0
2014-Nov-16 11:33N 46°12' W 123°48'0 0.0
2014-Nov-16 10:33N 46°12' W 123°48'0 0.0
2014-Nov-16 09:33N 46°12' W 123°48'0 0.0
2014-Nov-16 08:33N 46°12' W 123°48'0 0.0
2014-Nov-16 07:33N 46°12' W 123°48'0 0.0
2014-Nov-16 06:33N 46°12' W 123°48'0 0.0
2014-Nov-16 05:33N 46°12' W 123°48'0 0.0
2014-Nov-16 04:33N 46°12' W 123°48'0 0.0
2014-Nov-16 03:33N 46°12' W 123°48'0 0.0
2014-Nov-16 02:33N 46°12' W 123°48'0 0.0
2014-Nov-16 01:33N 46°12' W 123°48'0 0.0
2014-Nov-16 00:33N 46°12' W 123°48'0 0.0
2014-Nov-15 23:30N 46°12' W 123°48'0 0.0
2014-Nov-15 22:30N 46°12' W 123°48'0 0.0
2014-Nov-15 21:33N 46°12' W 123°48'0 0.0
2014-Nov-15 20:30N 46°12' W 123°48'0 0.0
2014-Nov-15 19:33N 46°12' W 123°48'0 0.0
2014-Nov-15 18:33N 46°12' W 123°48'0 0.0
2014-Nov-15 17:33N 46°12' W 123°48'0 0.0
2014-Nov-15 16:33N 46°12' W 123°48'0 0.0
2014-Nov-15 15:33N 46°12' W 123°48'0 0.0
2014-Nov-15 14:33N 46°12' W 123°48'0 0.0
2014-Nov-15 13:33N 46°12' W 123°48'0 0.0
2014-Nov-15 12:33N 46°12' W 123°48'0 0.0
2014-Nov-15 11:33N 46°12' W 123°48'0 0.0
2014-Nov-15 10:33N 46°12' W 123°48'0 0.0
2014-Nov-15 09:33N 46°12' W 123°48'0 0.0
2014-Nov-15 08:33N 46°12' W 123°48'0 0.0
2014-Nov-15 07:33N 46°12' W 123°48'0 0.0
2014-Nov-15 06:33N 46°12' W 123°48'0 0.0
2014-Nov-15 05:33N 46°12' W 123°48'0 0.0
2014-Nov-15 04:33N 46°12' W 123°48'0 0.0
2014-Nov-15 03:33N 46°12' W 123°48'0 0.0
2014-Nov-15 02:33N 46°12' W 123°48'0 0.0
2014-Nov-15 01:33N 46°12' W 123°48'0 0.0
2014-Nov-15 00:33N 46°12' W 123°48'0 0.0
2014-Nov-14 23:33N 46°12' W 123°48'0 0.0
2014-Nov-14 22:33N 46°12' W 123°48'0 0.0
2014-Nov-14 21:33N 46°12' W 123°48'0 0.0
2014-Nov-14 20:33N 46°12' W 123°48'0 0.0
2014-Nov-14 19:33N 46°12' W 123°48'0 0.0
2014-Nov-14 18:33N 46°12' W 123°48'0 0.0
2014-Nov-14 17:33N 46°12' W 123°48'0 0.0
2014-Nov-14 16:33N 46°12' W 123°48'2 1.6
2014-Nov-14 15:31N 46°12' W 123°46'0 0.1
2014-Nov-14 14:31N 46°12' W 123°46'2 0.9
2014-Nov-14 12:32N 46°12' W 123°48'0 0.0
2014-Nov-14 11:32N 46°12' W 123°48'0 0.0
2014-Nov-14 10:32N 46°12' W 123°48'0 0.0
2014-Nov-14 09:32N 46°12' W 123°48'0 0.0
2014-Nov-14 08:32N 46°12' W 123°48'0 0.0
2014-Nov-14 07:32N 46°12' W 123°48'0 0.0
2014-Nov-14 06:32N 46°12' W 123°48'0 0.0
2014-Nov-14 05:32N 46°12' W 123°48'0 0.0
2014-Nov-14 04:32N 46°12' W 123°48'0 0.0
2014-Nov-14 03:32N 46°12' W 123°48'0 0.0
2014-Nov-14 02:32N 46°12' W 123°48'0 0.0
2014-Nov-14 01:32N 46°12' W 123°48'0 0.0
2014-Nov-14 00:32N 46°12' W 123°48'0 0.0
2014-Nov-13 23:32N 46°12' W 123°48'0 0.0
2014-Nov-13 22:29N 46°12' W 123°48'0 0.0
2014-Nov-13 21:32N 46°12' W 123°48'0 0.0
2014-Nov-13 20:32N 46°12' W 123°48'0 0.0
2014-Nov-13 19:32N 46°12' W 123°48'0 0.0
2014-Nov-13 18:32N 46°12' W 123°48'0 0.0
2014-Nov-13 17:32N 46°12' W 123°48'0 0.0
2014-Nov-13 16:32N 46°12' W 123°48'0 0.0
2014-Nov-13 15:29N 46°12' W 123°48'0 0.0
2014-Nov-13 14:32N 46°12' W 123°48'0 0.0
2014-Nov-13 13:32N 46°12' W 123°48'0 0.0
2014-Nov-13 12:32N 46°12' W 123°48'0 0.0
2014-Nov-13 11:32N 46°12' W 123°48'0 0.0
2014-Nov-13 10:32N 46°12' W 123°48'0 0.0
2014-Nov-13 09:29N 46°12' W 123°48'0 0.0
2014-Nov-13 08:29N 46°12' W 123°48'0 0.0
2014-Nov-13 07:32N 46°12' W 123°48'0 0.0
2014-Nov-13 06:32N 46°12' W 123°48'0 0.0
2014-Nov-13 05:32N 46°12' W 123°48'0 0.0
2014-Nov-13 04:32N 46°12' W 123°48'0 0.0
2014-Nov-13 03:32N 46°12' W 123°48'0 0.0
2014-Nov-13 02:32N 46°12' W 123°48'0 0.0
2014-Nov-13 01:32N 46°12' W 123°48'0 0.0
2014-Nov-13 00:32N 46°12' W 123°48'0 0.0
2014-Nov-12 23:32N 46°12' W 123°48'0 0.0
2014-Nov-12 22:32N 46°12' W 123°48'0 0.0
2014-Nov-12 21:32N 46°12' W 123°48'0 0.0
2014-Nov-12 20:32N 46°12' W 123°48'0 0.0
2014-Nov-12 19:32N 46°12' W 123°48'0 0.0
2014-Nov-12 18:32N 46°12' W 123°48'0 0.0
2014-Nov-12 17:32N 46°12' W 123°48'0 0.0
2014-Nov-12 16:32N 46°12' W 123°48'0 0.0
2014-Nov-12 15:32N 46°12' W 123°48'0 0.0
2014-Nov-12 14:29N 46°12' W 123°48'0 0.0
2014-Nov-12 13:32N 46°12' W 123°48'0 0.0
2014-Nov-12 12:32N 46°12' W 123°48'0 0.0
2014-Nov-12 11:29N 46°12' W 123°48'0 0.0
2014-Nov-12 10:32N 46°12' W 123°48'0 0.0
2014-Nov-12 09:32N 46°12' W 123°48'0 0.0
2014-Nov-12 08:26N 46°12' W 123°48'0 0.0
2014-Nov-12 07:32N 46°12' W 123°48'0 0.0
2014-Nov-12 06:32N 46°12' W 123°48'0 0.0
2014-Nov-12 05:32N 46°12' W 123°48'0 0.0
2014-Nov-12 04:29N 46°12' W 123°48'0 0.0
2014-Nov-12 03:29N 46°12' W 123°48'0 0.0
2014-Nov-12 02:32N 46°12' W 123°48'0 0.0
2014-Nov-12 01:32N 46°12' W 123°48'0 0.0
2014-Nov-12 00:32N 46°12' W 123°48'0 0.0
2014-Nov-11 23:29N 46°12' W 123°48'0 0.0
2014-Nov-11 22:32N 46°12' W 123°48'0 0.0
2014-Nov-11 21:32N 46°12' W 123°48'0 0.0
2014-Nov-11 20:32N 46°12' W 123°48'0 0.0
2014-Nov-11 19:32N 46°12' W 123°48'0 0.0
2014-Nov-11 18:32N 46°12' W 123°48'2 2.4
2014-Nov-11 17:32N 46°11' W 123°51'0 0.0
2014-Nov-11 16:32N 46°11' W 123°51'0 0.0
2014-Nov-11 15:32N 46°11' W 123°51'0 0.0
2014-Nov-11 14:32N 46°11' W 123°51'0 0.0
2014-Nov-11 13:32N 46°11' W 123°51'0 0.0
2014-Nov-11 12:32N 46°11' W 123°51'2 2.5
2014-Nov-11 11:33N 46°11' W 123°55'8 7.5
2014-Nov-11 10:33N 46°15' W 124°05'6 6.3
2014-Nov-11 09:33N 46°13' W 124°13'3 3.5
2014-Nov-11 08:33N 46°13' W 124°18'3 2.8
2014-Nov-11 07:33N 46°13' W 124°22'3 2.9
2014-Nov-11 06:32N 46°13' W 124°26'4 3.7
2014-Nov-11 05:33N 46°13' W 124°31'4 3.6
2014-Nov-11 04:33N 46°16' W 124°31'1 1.1
2014-Nov-11 03:33N 46°15' W 124°32'1 1.4
2014-Nov-11 02:33N 46°16' W 124°31'  
Track history (hours):
 
Tides and Currents Weather Stations Pressure Air Temp Water Temp Dewpoint Dewpoint Depression Visibility Wind Speed Wind Dir Waves Ship Positions

Ocean Beaut

Owner: John Moreland Fishing Inc., Astoria, OR. More information available from US FCC via Universal Licensing System.

Last reported at 2014-Nov-21 01:32 UTC. Time now 2014-Nov-21 02:32 UTC.
Position N 46°12' W 123°48'.

Length 20 m.

Type: Fishing. MMSI: 367187080.

Date/timePositionNaut miles runAvg speedWind from/ knotsBaromVisibWave heightAir tempDewpointWater temp
2014-Nov-21 01:32N 46°12' W 123°48'0 0.0
2014-Nov-21 00:32N 46°12' W 123°48'0 0.0
2014-Nov-20 23:32N 46°12' W 123°48'0 0.0
2014-Nov-20 22:32N 46°12' W 123°48'0 0.0
2014-Nov-20 21:32N 46°12' W 123°48'0 0.0
2014-Nov-20 20:32N 46°12' W 123°48'0 0.0
2014-Nov-20 19:32N 46°12' W 123°48'0 0.0
2014-Nov-20 17:22N 46°12' W 123°48'0 0.0
2014-Nov-20 16:31N 46°12' W 123°48'0 0.0
2014-Nov-20 15:31N 46°12' W 123°48'0 0.0
2014-Nov-20 14:31N 46°12' W 123°48'0 0.0
2014-Nov-20 13:31N 46°12' W 123°48'0 0.0
2014-Nov-20 12:31N 46°12' W 123°48'0 0.0
2014-Nov-20 11:31N 46°12' W 123°48'0 0.0
2014-Nov-20 10:31N 46°12' W 123°48'0 0.0
2014-Nov-20 09:31N 46°12' W 123°48'0 0.0
2014-Nov-20 08:31N 46°12' W 123°48'0 0.0
2014-Nov-20 07:31N 46°12' W 123°48'0 0.0
2014-Nov-20 06:25N 46°12' W 123°48'0 0.0
2014-Nov-20 05:31N 46°12' W 123°48'0 0.0
2014-Nov-20 04:31N 46°12' W 123°48'3 3.4
2014-Nov-20 03:33N 46°11' W 123°53'7 7.0
2014-Nov-20 02:33N 46°15' W 124°01'4 4.3
2014-Nov-20 01:33N 46°14' W 124°07'6 5.8
2014-Nov-20 00:33N 46°11' W 124°15'6 6.3
2014-Nov-19 23:33N 46°09' W 124°23'7 6.5
2014-Nov-19 22:33N 46°06' W 124°31'7 6.8
2014-Nov-19 21:33N 46°03' W 124°40'1 1.3
2014-Nov-19 20:33N 46°03' W 124°42'5 4.7
2014-Nov-19 19:33N 46°00' W 124°48'1 1.3
2014-Nov-19 18:33N 45°59' W 124°47'2 2.0
2014-Nov-19 17:33N 45°58' W 124°45'2 2.1
2014-Nov-19 16:33N 45°56' W 124°45'2 2.2
2014-Nov-19 15:33N 45°54' W 124°46'2 2.1
2014-Nov-19 14:33N 45°52' W 124°45'3 2.5
2014-Nov-19 13:33N 45°49' W 124°45'1 1.3
2014-Nov-19 12:33N 45°48' W 124°44'2 2.1
2014-Nov-19 11:33N 45°46' W 124°44'2 2.1
2014-Nov-19 10:33N 45°45' W 124°46'2 2.0
2014-Nov-19 09:33N 45°43' W 124°45'4 3.6
2014-Nov-19 08:33N 45°40' W 124°42'5 5.2
2014-Nov-19 07:33N 45°35' W 124°38'1 1.3
2014-Nov-19 06:33N 45°34' W 124°37'2 2.1
2014-Nov-19 05:33N 45°32' W 124°36'2 2.1
2014-Nov-19 04:33N 45°30' W 124°35'2 2.1
2014-Nov-19 03:33N 45°28' W 124°34'2 2.1
2014-Nov-19 02:33N 45°26' W 124°33'2 2.1
2014-Nov-19 01:33N 45°25' W 124°30'1 0.8
2014-Nov-19 00:33N 45°26' W 124°31'4 1.6
2014-Nov-18 22:13N 45°30' W 124°31'1 2.0
2014-Nov-18 21:33N 45°31' W 124°32'2 2.1
2014-Nov-18 20:32N 45°32' W 124°34'2 2.0
2014-Nov-18 19:29N 45°34' W 124°36'2 2.2
2014-Nov-18 18:23N 45°36' W 124°39'2 2.4
2014-Nov-18 17:31N 45°36' W 124°41'4 2.0
2014-Nov-18 15:16N 45°31' W 124°40'2 2.2
2014-Nov-18 14:30N 45°30' W 124°38'2 2.1
2014-Nov-18 13:33N 45°29' W 124°36'1 0.3
2014-Nov-18 10:33N 45°29' W 124°37'1 1.3
2014-Nov-18 09:33N 45°30' W 124°38'2 2.2
2014-Nov-18 08:30N 45°32' W 124°40'7 2.3
2014-Nov-18 05:19N 45°39' W 124°41'11 6.5
2014-Nov-18 03:33N 45°50' W 124°39'9 8.1
2014-Nov-18 02:27N 45°59' W 124°37'8 8.3
2014-Nov-18 01:31N 46°07' W 124°34'8 8.2
2014-Nov-18 00:33N 46°14' W 124°30'2 1.5
2014-Nov-17 23:33N 46°15' W 124°28'2 2.2
2014-Nov-17 22:33N 46°16' W 124°25'2 2.0
2014-Nov-17 21:31N 46°15' W 124°28'2 2.2
2014-Nov-17 20:33N 46°14' W 124°31'3 2.5
2014-Nov-17 19:33N 46°16' W 124°28'5 4.9
2014-Nov-17 18:33N 46°16' W 124°21'9 8.8
2014-Nov-17 17:33N 46°14' W 124°08'7 7.3
2014-Nov-17 16:33N 46°13' W 123°58'5 4.6
2014-Nov-17 15:31N 46°11' W 123°51'0 0.0
2014-Nov-17 14:31N 46°11' W 123°51'2 2.3
2014-Nov-17 13:30N 46°12' W 123°48'0 0.0
2014-Nov-17 12:33N 46°12' W 123°48'0 0.0
2014-Nov-17 11:33N 46°12' W 123°48'0 0.0
2014-Nov-17 10:33N 46°12' W 123°48'0 0.0
2014-Nov-17 09:33N 46°12' W 123°48'0 0.0
2014-Nov-17 08:33N 46°12' W 123°48'0 0.0
2014-Nov-17 07:33N 46°12' W 123°48'0 0.0
2014-Nov-17 06:33N 46°12' W 123°48'0 0.0
2014-Nov-17 05:33N 46°12' W 123°48'0 0.0
2014-Nov-17 04:33N 46°12' W 123°48'0 0.0
2014-Nov-17 03:33N 46°12' W 123°48'0 0.0
2014-Nov-17 02:30N 46°12' W 123°48'0 0.0
2014-Nov-17 01:33N 46°12' W 123°48'0 0.0
2014-Nov-17 00:33N 46°12' W 123°48'0 0.0
2014-Nov-16 23:33N 46°12' W 123°48'0 0.0
2014-Nov-16 22:33N 46°12' W 123°48'0 0.0
2014-Nov-16 21:33N 46°12' W 123°48'0 0.0
2014-Nov-16 20:33N 46°12' W 123°48'0 0.0
2014-Nov-16 19:33N 46°12' W 123°48'0 0.0
2014-Nov-16 18:33N 46°12' W 123°48'0 0.0
2014-Nov-16 17:33N 46°12' W 123°48'0 0.0
2014-Nov-16 16:33N 46°12' W 123°48'0 0.0
2014-Nov-16 15:33N 46°12' W 123°48'0 0.0
2014-Nov-16 14:33N 46°12' W 123°48'0 0.0
2014-Nov-16 13:33N 46°12' W 123°48'0 0.0
2014-Nov-16 12:33N 46°12' W 123°48'0 0.0
2014-Nov-16 11:33N 46°12' W 123°48'0 0.0
2014-Nov-16 10:33N 46°12' W 123°48'0 0.0
2014-Nov-16 09:33N 46°12' W 123°48'0 0.0
2014-Nov-16 08:33N 46°12' W 123°48'0 0.0
2014-Nov-16 07:33N 46°12' W 123°48'0 0.0
2014-Nov-16 06:33N 46°12' W 123°48'0 0.0
2014-Nov-16 05:33N 46°12' W 123°48'0 0.0
2014-Nov-16 04:33N 46°12' W 123°48'0 0.0
2014-Nov-16 03:33N 46°12' W 123°48'0 0.0
2014-Nov-16 02:33N 46°12' W 123°48'0 0.0
2014-Nov-16 01:33N 46°12' W 123°48'0 0.0
2014-Nov-16 00:33N 46°12' W 123°48'0 0.0
2014-Nov-15 23:30N 46°12' W 123°48'0 0.0
2014-Nov-15 22:30N 46°12' W 123°48'0 0.0
2014-Nov-15 21:33N 46°12' W 123°48'0 0.0
2014-Nov-15 20:30N 46°12' W 123°48'0 0.0
2014-Nov-15 19:33N 46°12' W 123°48'0 0.0
2014-Nov-15 18:33N 46°12' W 123°48'0 0.0
2014-Nov-15 17:33N 46°12' W 123°48'0 0.0
2014-Nov-15 16:33N 46°12' W 123°48'0 0.0
2014-Nov-15 15:33N 46°12' W 123°48'0 0.0
2014-Nov-15 14:33N 46°12' W 123°48'0 0.0
2014-Nov-15 13:33N 46°12' W 123°48'0 0.0
2014-Nov-15 12:33N 46°12' W 123°48'0 0.0
2014-Nov-15 11:33N 46°12' W 123°48'0 0.0
2014-Nov-15 10:33N 46°12' W 123°48'0 0.0
2014-Nov-15 09:33N 46°12' W 123°48'0 0.0
2014-Nov-15 08:33N 46°12' W 123°48'0 0.0
2014-Nov-15 07:33N 46°12' W 123°48'0 0.0
2014-Nov-15 06:33N 46°12' W 123°48'0 0.0
2014-Nov-15 05:33N 46°12' W 123°48'0 0.0
2014-Nov-15 04:33N 46°12' W 123°48'0 0.0
2014-Nov-15 03:33N 46°12' W 123°48'0 0.0
2014-Nov-15 02:33N 46°12' W 123°48'0 0.0
2014-Nov-15 01:33N 46°12' W 123°48'0 0.0
2014-Nov-15 00:33N 46°12' W 123°48'0 0.0
2014-Nov-14 23:33N 46°12' W 123°48'0 0.0
2014-Nov-14 22:33N 46°12' W 123°48'0 0.0
2014-Nov-14 21:33N 46°12' W 123°48'0 0.0
2014-Nov-14 20:33N 46°12' W 123°48'0 0.0
2014-Nov-14 19:33N 46°12' W 123°48'0 0.0
2014-Nov-14 18:33N 46°12' W 123°48'0 0.0
2014-Nov-14 17:33N 46°12' W 123°48'0 0.0
2014-Nov-14 16:33N 46°12' W 123°48'2 1.6
2014-Nov-14 15:31N 46°12' W 123°46'0 0.1
2014-Nov-14 14:31N 46°12' W 123°46'2 0.9
2014-Nov-14 12:32N 46°12' W 123°48'0 0.0
2014-Nov-14 11:32N 46°12' W 123°48'0 0.0
2014-Nov-14 10:32N 46°12' W 123°48'0 0.0
2014-Nov-14 09:32N 46°12' W 123°48'0 0.0
2014-Nov-14 08:32N 46°12' W 123°48'0 0.0
2014-Nov-14 07:32N 46°12' W 123°48'0 0.0
2014-Nov-14 06:32N 46°12' W 123°48'0 0.0
2014-Nov-14 05:32N 46°12' W 123°48'0 0.0
2014-Nov-14 04:32N 46°12' W 123°48'0 0.0
2014-Nov-14 03:32N 46°12' W 123°48'0 0.0
2014-Nov-14 02:32N 46°12' W 123°48'0 0.0
2014-Nov-14 01:32N 46°12' W 123°48'0 0.0
2014-Nov-14 00:32N 46°12' W 123°48'0 0.0
2014-Nov-13 23:32N 46°12' W 123°48'0 0.0
2014-Nov-13 22:29N 46°12' W 123°48'0 0.0
2014-Nov-13 21:32N 46°12' W 123°48'0 0.0
2014-Nov-13 20:32N 46°12' W 123°48'0 0.0
2014-Nov-13 19:32N 46°12' W 123°48'0 0.0
2014-Nov-13 18:32N 46°12' W 123°48'0 0.0
2014-Nov-13 17:32N 46°12' W 123°48'0 0.0
2014-Nov-13 16:32N 46°12' W 123°48'0 0.0
2014-Nov-13 15:29N 46°12' W 123°48'0 0.0
2014-Nov-13 14:32N 46°12' W 123°48'0 0.0
2014-Nov-13 13:32N 46°12' W 123°48'0 0.0
2014-Nov-13 12:32N 46°12' W 123°48'0 0.0
2014-Nov-13 11:32N 46°12' W 123°48'0 0.0
2014-Nov-13 10:32N 46°12' W 123°48'0 0.0
2014-Nov-13 09:29N 46°12' W 123°48'0 0.0
2014-Nov-13 08:29N 46°12' W 123°48'0 0.0
2014-Nov-13 07:32N 46°12' W 123°48'0 0.0
2014-Nov-13 06:32N 46°12' W 123°48'0 0.0
2014-Nov-13 05:32N 46°12' W 123°48'0 0.0
2014-Nov-13 04:32N 46°12' W 123°48'0 0.0
2014-Nov-13 03:32N 46°12' W 123°48'0 0.0
2014-Nov-13 02:32N 46°12' W 123°48'0 0.0
2014-Nov-13 01:32N 46°12' W 123°48'0 0.0
2014-Nov-13 00:32N 46°12' W 123°48'0 0.0
2014-Nov-12 23:32N 46°12' W 123°48'0 0.0
2014-Nov-12 22:32N 46°12' W 123°48'0 0.0
2014-Nov-12 21:32N 46°12' W 123°48'0 0.0
2014-Nov-12 20:32N 46°12' W 123°48'0 0.0
2014-Nov-12 19:32N 46°12' W 123°48'0 0.0
2014-Nov-12 18:32N 46°12' W 123°48'0 0.0
2014-Nov-12 17:32N 46°12' W 123°48'0 0.0
2014-Nov-12 16:32N 46°12' W 123°48'0 0.0
2014-Nov-12 15:32N 46°12' W 123°48'0 0.0
2014-Nov-12 14:29N 46°12' W 123°48'0 0.0
2014-Nov-12 13:32N 46°12' W 123°48'0 0.0
2014-Nov-12 12:32N 46°12' W 123°48'0 0.0
2014-Nov-12 11:29N 46°12' W 123°48'0 0.0
2014-Nov-12 10:32N 46°12' W 123°48'0 0.0
2014-Nov-12 09:32N 46°12' W 123°48'0 0.0
2014-Nov-12 08:26N 46°12' W 123°48'0 0.0
2014-Nov-12 07:32N 46°12' W 123°48'0 0.0
2014-Nov-12 06:32N 46°12' W 123°48'0 0.0
2014-Nov-12 05:32N 46°12' W 123°48'0 0.0
2014-Nov-12 04:29N 46°12' W 123°48'0 0.0
2014-Nov-12 03:29N 46°12' W 123°48'0 0.0
2014-Nov-12 02:32N 46°12' W 123°48'0 0.0
2014-Nov-12 01:32N 46°12' W 123°48'0 0.0
2014-Nov-12 00:32N 46°12' W 123°48'0 0.0
2014-Nov-11 23:29N 46°12' W 123°48'0 0.0
2014-Nov-11 22:32N 46°12' W 123°48'0 0.0
2014-Nov-11 21:32N 46°12' W 123°48'0 0.0
2014-Nov-11 20:32N 46°12' W 123°48'0 0.0
2014-Nov-11 19:32N 46°12' W 123°48'0 0.0
2014-Nov-11 18:32N 46°12' W 123°48'2 2.4
2014-Nov-11 17:32N 46°11' W 123°51'0 0.0
2014-Nov-11 16:32N 46°11' W 123°51'0 0.0
2014-Nov-11 15:32N 46°11' W 123°51'0 0.0
2014-Nov-11 14:32N 46°11' W 123°51'0 0.0
2014-Nov-11 13:32N 46°11' W 123°51'0 0.0
2014-Nov-11 12:32N 46°11' W 123°51'2 2.5
2014-Nov-11 11:33N 46°11' W 123°55'8 7.5
2014-Nov-11 10:33N 46°15' W 124°05'6 6.3
2014-Nov-11 09:33N 46°13' W 124°13'3 3.5
2014-Nov-11 08:33N 46°13' W 124°18'3 2.8
2014-Nov-11 07:33N 46°13' W 124°22'3 2.9
2014-Nov-11 06:32N 46°13' W 124°26'4 3.7
2014-Nov-11 05:33N 46°13' W 124°31'4 3.6
2014-Nov-11 04:33N 46°16' W 124°31'1 1.1
2014-Nov-11 03:33N 46°15' W 124°32'1 1.4
2014-Nov-11 02:33N 46°16' W 124°31'  

Dump ship's entire track history